sensor_id;sensor_type;location;lat;lon;timestamp;temperature;humidity
72905;DHT22;61048;52.162;4.516;2023-04-24T00:01:21;18.00;55.20
72905;DHT22;61048;52.162;4.516;2023-04-24T00:03:48;18.00;55.10
72905;DHT22;61048;52.162;4.516;2023-04-24T00:06:15;17.90;55.10
72905;DHT22;61048;52.162;4.516;2023-04-24T00:08:44;18.00;55.10
72905;DHT22;61048;52.162;4.516;2023-04-24T00:11:11;18.00;55.10
72905;DHT22;61048;52.162;4.516;2023-04-24T00:13:38;18.00;55.10
72905;DHT22;61048;52.162;4.516;2023-04-24T00:16:05;17.90;55.10
72905;DHT22;61048;52.162;4.516;2023-04-24T00:18:32;17.90;55.10
72905;DHT22;61048;52.162;4.516;2023-04-24T00:20:59;17.90;55.10
72905;DHT22;61048;52.162;4.516;2023-04-24T00:23:26;17.90;55.10
72905;DHT22;61048;52.162;4.516;2023-04-24T00:25:54;17.90;55.10
72905;DHT22;61048;52.162;4.516;2023-04-24T00:28:21;17.90;55.10
72905;DHT22;61048;52.162;4.516;2023-04-24T00:30:48;17.90;55.10
72905;DHT22;61048;52.162;4.516;2023-04-24T00:33:15;17.90;55.10
72905;DHT22;61048;52.162;4.516;2023-04-24T00:35:42;17.90;55.20
72905;DHT22;61048;52.162;4.516;2023-04-24T00:38:09;17.90;55.10
72905;DHT22;61048;52.162;4.516;2023-04-24T00:40:35;17.90;55.10
72905;DHT22;61048;52.162;4.516;2023-04-24T00:43:04;17.90;55.10
72905;DHT22;61048;52.162;4.516;2023-04-24T00:45:31;17.90;55.10
72905;DHT22;61048;52.162;4.516;2023-04-24T00:47:58;17.90;55.10
72905;DHT22;61048;52.162;4.516;2023-04-24T00:50:26;17.90;55.10
72905;DHT22;61048;52.162;4.516;2023-04-24T00:52:53;17.90;55.10
72905;DHT22;61048;52.162;4.516;2023-04-24T00:55:20;17.90;55.10
72905;DHT22;61048;52.162;4.516;2023-04-24T00:57:48;17.90;55.10
72905;DHT22;61048;52.162;4.516;2023-04-24T01:00:17;17.90;55.10
72905;DHT22;61048;52.162;4.516;2023-04-24T01:02:45;17.90;55.10
72905;DHT22;61048;52.162;4.516;2023-04-24T01:05:13;17.90;55.10
72905;DHT22;61048;52.162;4.516;2023-04-24T01:07:41;17.80;55.10
72905;DHT22;61048;52.162;4.516;2023-04-24T01:10:11;17.90;55.10
72905;DHT22;61048;52.162;4.516;2023-04-24T01:12:39;17.80;55.10
72905;DHT22;61048;52.162;4.516;2023-04-24T01:15:07;17.80;55.10
72905;DHT22;61048;52.162;4.516;2023-04-24T01:17:35;17.80;55.10
72905;DHT22;61048;52.162;4.516;2023-04-24T01:20:04;17.80;55.10
72905;DHT22;61048;52.162;4.516;2023-04-24T01:22:34;17.80;55.10
72905;DHT22;61048;52.162;4.516;2023-04-24T01:25:01;17.80;55.10
72905;DHT22;61048;52.162;4.516;2023-04-24T01:27:28;17.80;55.10
72905;DHT22;61048;52.162;4.516;2023-04-24T01:29:55;17.80;55.10
72905;DHT22;61048;52.162;4.516;2023-04-24T01:32:23;17.80;55.10
72905;DHT22;61048;52.162;4.516;2023-04-24T01:34:50;17.80;55.10
72905;DHT22;61048;52.162;4.516;2023-04-24T01:37:18;17.80;55.10
72905;DHT22;61048;52.162;4.516;2023-04-24T01:39:46;17.80;55.10
72905;DHT22;61048;52.162;4.516;2023-04-24T01:42:13;17.80;55.20
72905;DHT22;61048;52.162;4.516;2023-04-24T01:44:41;17.80;55.10
72905;DHT22;61048;52.162;4.516;2023-04-24T01:47:08;17.80;55.10
72905;DHT22;61048;52.162;4.516;2023-04-24T01:49:35;17.80;55.00
72905;DHT22;61048;52.162;4.516;2023-04-24T01:52:04;17.80;55.10
72905;DHT22;61048;52.162;4.516;2023-04-24T01:54:31;17.80;55.10
72905;DHT22;61048;52.162;4.516;2023-04-24T01:56:59;17.80;55.10
72905;DHT22;61048;52.162;4.516;2023-04-24T01:59:28;17.80;55.10
72905;DHT22;61048;52.162;4.516;2023-04-24T02:01:55;17.70;55.10
72905;DHT22;61048;52.162;4.516;2023-04-24T02:04:21;17.80;55.10
72905;DHT22;61048;52.162;4.516;2023-04-24T02:06:48;17.70;55.10
72905;DHT22;61048;52.162;4.516;2023-04-24T02:09:15;17.70;55.10
72905;DHT22;61048;52.162;4.516;2023-04-24T02:11:42;17.70;55.20
72905;DHT22;61048;52.162;4.516;2023-04-24T02:14:10;17.70;55.20
72905;DHT22;61048;52.162;4.516;2023-04-24T02:16:37;17.70;55.10
72905;DHT22;61048;52.162;4.516;2023-04-24T02:19:04;17.70;55.10
72905;DHT22;61048;52.162;4.516;2023-04-24T02:21:31;17.70;55.10
72905;DHT22;61048;52.162;4.516;2023-04-24T02:23:58;17.70;55.20
72905;DHT22;61048;52.162;4.516;2023-04-24T02:26:25;17.70;55.10
72905;DHT22;61048;52.162;4.516;2023-04-24T02:28:52;17.70;55.20
72905;DHT22;61048;52.162;4.516;2023-04-24T02:31:20;17.70;55.10
72905;DHT22;61048;52.162;4.516;2023-04-24T02:33:47;17.70;55.10
72905;DHT22;61048;52.162;4.516;2023-04-24T02:36:14;17.70;55.10
72905;DHT22;61048;52.162;4.516;2023-04-24T02:38:41;17.70;55.10
72905;DHT22;61048;52.162;4.516;2023-04-24T02:41:08;17.70;55.20
72905;DHT22;61048;52.162;4.516;2023-04-24T02:43:35;17.70;55.20
72905;DHT22;61048;52.162;4.516;2023-04-24T02:46:02;17.60;55.20
72905;DHT22;61048;52.162;4.516;2023-04-24T02:48:30;17.60;55.20
72905;DHT22;61048;52.162;4.516;2023-04-24T02:50:57;17.60;55.20
72905;DHT22;61048;52.162;4.516;2023-04-24T02:53:24;17.60;55.20
72905;DHT22;61048;52.162;4.516;2023-04-24T02:55:50;17.60;55.20
72905;DHT22;61048;52.162;4.516;2023-04-24T02:58:17;17.60;55.20
72905;DHT22;61048;52.162;4.516;2023-04-24T03:00:45;17.60;55.20
72905;DHT22;61048;52.162;4.516;2023-04-24T03:03:12;17.60;55.20
72905;DHT22;61048;52.162;4.516;2023-04-24T03:05:40;17.60;55.20
72905;DHT22;61048;52.162;4.516;2023-04-24T03:08:07;17.60;55.30
72905;DHT22;61048;52.162;4.516;2023-04-24T03:10:34;17.60;55.30
72905;DHT22;61048;52.162;4.516;2023-04-24T03:13:01;17.60;55.40
72905;DHT22;61048;52.162;4.516;2023-04-24T03:15:28;17.60;55.30
72905;DHT22;61048;52.162;4.516;2023-04-24T03:17:55;17.60;55.40
72905;DHT22;61048;52.162;4.516;2023-04-24T03:20:22;17.60;55.30
72905;DHT22;61048;52.162;4.516;2023-04-24T03:22:50;17.60;55.40
72905;DHT22;61048;52.162;4.516;2023-04-24T03:25:17;17.60;55.40
72905;DHT22;61048;52.162;4.516;2023-04-24T03:27:44;17.60;55.50
72905;DHT22;61048;52.162;4.516;2023-04-24T03:30:11;17.60;55.50
72905;DHT22;61048;52.162;4.516;2023-04-24T03:32:38;17.60;55.50
72905;DHT22;61048;52.162;4.516;2023-04-24T03:35:06;17.60;55.40
72905;DHT22;61048;52.162;4.516;2023-04-24T03:37:33;17.60;55.40
72905;DHT22;61048;52.162;4.516;2023-04-24T03:40:02;17.60;55.40
72905;DHT22;61048;52.162;4.516;2023-04-24T03:42:29;17.60;55.40
72905;DHT22;61048;52.162;4.516;2023-04-24T03:44:56;17.60;55.50
72905;DHT22;61048;52.162;4.516;2023-04-24T03:47:22;17.60;55.50
72905;DHT22;61048;52.162;4.516;2023-04-24T03:49:49;17.60;55.50
72905;DHT22;61048;52.162;4.516;2023-04-24T03:52:17;17.60;55.40
72905;DHT22;61048;52.162;4.516;2023-04-24T03:54:44;17.60;55.40
72905;DHT22;61048;52.162;4.516;2023-04-24T03:57:12;17.60;55.50
72905;DHT22;61048;52.162;4.516;2023-04-24T03:59:39;17.60;55.40
72905;DHT22;61048;52.162;4.516;2023-04-24T04:02:05;17.60;55.50
72905;DHT22;61048;52.162;4.516;2023-04-24T04:04:33;17.60;55.40
72905;DHT22;61048;52.162;4.516;2023-04-24T04:06:59;17.60;55.50
72905;DHT22;61048;52.162;4.516;2023-04-24T04:09:28;17.60;55.50
72905;DHT22;61048;52.162;4.516;2023-04-24T04:11:55;17.60;55.40
72905;DHT22;61048;52.162;4.516;2023-04-24T04:14:23;17.60;55.50
72905;DHT22;61048;52.162;4.516;2023-04-24T04:16:50;17.50;55.40
72905;DHT22;61048;52.162;4.516;2023-04-24T04:19:17;17.60;55.40
72905;DHT22;61048;52.162;4.516;2023-04-24T04:21:44;17.50;55.40
72905;DHT22;61048;52.162;4.516;2023-04-24T04:24:16;17.50;55.40
72905;DHT22;61048;52.162;4.516;2023-04-24T04:26:43;17.50;55.40
72905;DHT22;61048;52.162;4.516;2023-04-24T04:29:11;17.50;55.40
72905;DHT22;61048;52.162;4.516;2023-04-24T04:31:40;17.50;55.50
72905;DHT22;61048;52.162;4.516;2023-04-24T04:34:07;17.50;55.50
72905;DHT22;61048;52.162;4.516;2023-04-24T04:36:34;17.50;55.60
72905;DHT22;61048;52.162;4.516;2023-04-24T04:39:02;17.50;55.50
72905;DHT22;61048;52.162;4.516;2023-04-24T04:41:29;17.50;55.60
72905;DHT22;61048;52.162;4.516;2023-04-24T04:43:56;17.50;55.50
72905;DHT22;61048;52.162;4.516;2023-04-24T04:46:24;17.50;55.60
72905;DHT22;61048;52.162;4.516;2023-04-24T04:48:53;17.50;55.60
72905;DHT22;61048;52.162;4.516;2023-04-24T04:51:22;17.50;55.60
72905;DHT22;61048;52.162;4.516;2023-04-24T04:53:48;17.50;55.60
72905;DHT22;61048;52.162;4.516;2023-04-24T04:56:15;17.50;55.60
72905;DHT22;61048;52.162;4.516;2023-04-24T04:58:42;17.40;55.50
72905;DHT22;61048;52.162;4.516;2023-04-24T05:01:09;17.40;55.50
72905;DHT22;61048;52.162;4.516;2023-04-24T05:03:36;17.40;55.60
72905;DHT22;61048;52.162;4.516;2023-04-24T05:06:05;17.40;55.60
72905;DHT22;61048;52.162;4.516;2023-04-24T05:08:32;17.40;55.60
72905;DHT22;61048;52.162;4.516;2023-04-24T05:10:59;17.40;55.50
72905;DHT22;61048;52.162;4.516;2023-04-24T05:13:26;17.40;55.60
72905;DHT22;61048;52.162;4.516;2023-04-24T05:15:53;17.40;55.60
72905;DHT22;61048;52.162;4.516;2023-04-24T05:18:20;17.40;55.50
72905;DHT22;61048;52.162;4.516;2023-04-24T05:20:46;17.40;55.50
72905;DHT22;61048;52.162;4.516;2023-04-24T05:23:15;17.40;55.50
72905;DHT22;61048;52.162;4.516;2023-04-24T05:25:42;17.30;55.50
72905;DHT22;61048;52.162;4.516;2023-04-24T05:28:08;17.30;55.50
72905;DHT22;61048;52.162;4.516;2023-04-24T05:30:35;17.30;55.40
72905;DHT22;61048;52.162;4.516;2023-04-24T05:33:02;17.30;55.50
72905;DHT22;61048;52.162;4.516;2023-04-24T05:35:29;17.30;55.40
72905;DHT22;61048;52.162;4.516;2023-04-24T05:37:56;17.30;55.50
72905;DHT22;61048;52.162;4.516;2023-04-24T05:40:24;17.30;55.40
72905;DHT22;61048;52.162;4.516;2023-04-24T05:42:51;17.30;55.30
72905;DHT22;61048;52.162;4.516;2023-04-24T05:45:18;17.30;55.40
72905;DHT22;61048;52.162;4.516;2023-04-24T05:47:45;17.30;55.40
72905;DHT22;61048;52.162;4.516;2023-04-24T05:50:12;17.30;55.40
72905;DHT22;61048;52.162;4.516;2023-04-24T05:52:39;17.30;55.50
72905;DHT22;61048;52.162;4.516;2023-04-24T05:55:06;17.30;55.30
72905;DHT22;61048;52.162;4.516;2023-04-24T05:57:34;17.30;55.40
72905;DHT22;61048;52.162;4.516;2023-04-24T06:00:05;17.30;55.40
72905;DHT22;61048;52.162;4.516;2023-04-24T06:02:33;17.30;55.40
72905;DHT22;61048;52.162;4.516;2023-04-24T06:05:00;17.30;55.50
72905;DHT22;61048;52.162;4.516;2023-04-24T06:07:27;17.30;55.40
72905;DHT22;61048;52.162;4.516;2023-04-24T06:09:53;17.30;55.40
72905;DHT22;61048;52.162;4.516;2023-04-24T06:12:20;17.30;55.40
72905;DHT22;61048;52.162;4.516;2023-04-24T06:14:48;17.30;55.40
72905;DHT22;61048;52.162;4.516;2023-04-24T06:17:15;17.30;55.40
72905;DHT22;61048;52.162;4.516;2023-04-24T06:19:42;17.30;55.40
72905;DHT22;61048;52.162;4.516;2023-04-24T06:22:09;17.30;55.30
72905;DHT22;61048;52.162;4.516;2023-04-24T06:24:36;17.30;55.40
72905;DHT22;61048;52.162;4.516;2023-04-24T06:27:03;17.30;55.40
72905;DHT22;61048;52.162;4.516;2023-04-24T06:29:30;17.30;55.40
72905;DHT22;61048;52.162;4.516;2023-04-24T06:31:58;17.30;55.40
72905;DHT22;61048;52.162;4.516;2023-04-24T06:34:25;17.30;55.30
72905;DHT22;61048;52.162;4.516;2023-04-24T06:36:52;17.30;55.30
72905;DHT22;61048;52.162;4.516;2023-04-24T06:39:19;17.30;55.40
72905;DHT22;61048;52.162;4.516;2023-04-24T06:41:46;17.30;55.20
72905;DHT22;61048;52.162;4.516;2023-04-24T06:44:13;17.30;55.30
72905;DHT22;61048;52.162;4.516;2023-04-24T06:46:40;17.30;55.30
72905;DHT22;61048;52.162;4.516;2023-04-24T06:49:09;17.30;55.30
72905;DHT22;61048;52.162;4.516;2023-04-24T06:51:36;17.30;55.30
72905;DHT22;61048;52.162;4.516;2023-04-24T06:54:03;17.30;55.30
72905;DHT22;61048;52.162;4.516;2023-04-24T06:56:30;17.30;55.20
72905;DHT22;61048;52.162;4.516;2023-04-24T06:58:57;17.30;55.20
72905;DHT22;61048;52.162;4.516;2023-04-24T07:01:24;17.30;55.30
72905;DHT22;61048;52.162;4.516;2023-04-24T07:03:51;17.30;55.20
72905;DHT22;61048;52.162;4.516;2023-04-24T07:06:19;17.30;55.10
72905;DHT22;61048;52.162;4.516;2023-04-24T07:08:48;17.30;55.20
72905;DHT22;61048;52.162;4.516;2023-04-24T07:11:15;17.30;55.10
72905;DHT22;61048;52.162;4.516;2023-04-24T07:13:42;17.30;55.10
72905;DHT22;61048;52.162;4.516;2023-04-24T07:16:09;17.30;55.20
72905;DHT22;61048;52.162;4.516;2023-04-24T07:18:36;17.30;55.10
72905;DHT22;61048;52.162;4.516;2023-04-24T07:21:04;17.30;55.10
72905;DHT22;61048;52.162;4.516;2023-04-24T07:23:32;17.30;55.20
72905;DHT22;61048;52.162;4.516;2023-04-24T07:25:59;17.30;55.00
72905;DHT22;61048;52.162;4.516;2023-04-24T07:28:25;17.30;55.10
72905;DHT22;61048;52.162;4.516;2023-04-24T07:30:56;17.30;55.10
72905;DHT22;61048;52.162;4.516;2023-04-24T07:33:24;17.30;55.10
72905;DHT22;61048;52.162;4.516;2023-04-24T07:35:51;17.30;54.80
72905;DHT22;61048;52.162;4.516;2023-04-24T07:38:18;17.30;54.90
72905;DHT22;61048;52.162;4.516;2023-04-24T07:40:48;17.30;54.90
72905;DHT22;61048;52.162;4.516;2023-04-24T07:43:14;17.30;54.80
72905;DHT22;61048;52.162;4.516;2023-04-24T07:45:41;17.30;54.80
72905;DHT22;61048;52.162;4.516;2023-04-24T07:48:08;17.30;54.80
72905;DHT22;61048;52.162;4.516;2023-04-24T07:50:35;17.30;54.80
72905;DHT22;61048;52.162;4.516;2023-04-24T07:53:03;17.30;54.80
72905;DHT22;61048;52.162;4.516;2023-04-24T07:55:29;17.30;54.80
72905;DHT22;61048;52.162;4.516;2023-04-24T07:57:58;17.30;54.80
72905;DHT22;61048;52.162;4.516;2023-04-24T08:00:25;17.30;54.70
72905;DHT22;61048;52.162;4.516;2023-04-24T08:02:52;17.30;54.70
72905;DHT22;61048;52.162;4.516;2023-04-24T08:05:18;17.30;54.70
72905;DHT22;61048;52.162;4.516;2023-04-24T08:07:45;17.30;54.60
72905;DHT22;61048;52.162;4.516;2023-04-24T08:10:14;17.40;54.60
72905;DHT22;61048;52.162;4.516;2023-04-24T08:12:41;17.40;54.70
72905;DHT22;61048;52.162;4.516;2023-04-24T08:15:10;17.30;54.60
72905;DHT22;61048;52.162;4.516;2023-04-24T08:17:37;17.40;54.60
72905;DHT22;61048;52.162;4.516;2023-04-24T08:20:05;17.40;54.60
72905;DHT22;61048;52.162;4.516;2023-04-24T08:22:35;17.30;54.50
72905;DHT22;61048;52.162;4.516;2023-04-24T08:25:03;17.40;54.50
72905;DHT22;61048;52.162;4.516;2023-04-24T08:27:29;17.40;54.50
72905;DHT22;61048;52.162;4.516;2023-04-24T08:29:57;17.40;54.40
72905;DHT22;61048;52.162;4.516;2023-04-24T08:32:25;17.40;54.40
72905;DHT22;61048;52.162;4.516;2023-04-24T08:34:53;17.40;54.30
72905;DHT22;61048;52.162;4.516;2023-04-24T08:37:22;17.40;54.20
72905;DHT22;61048;52.162;4.516;2023-04-24T08:39:49;17.40;54.20
72905;DHT22;61048;52.162;4.516;2023-04-24T08:42:17;17.40;54.10
72905;DHT22;61048;52.162;4.516;2023-04-24T08:44:44;17.40;54.20
72905;DHT22;61048;52.162;4.516;2023-04-24T08:47:12;17.40;54.20
72905;DHT22;61048;52.162;4.516;2023-04-24T08:49:40;17.40;54.10
72905;DHT22;61048;52.162;4.516;2023-04-24T08:52:07;17.40;54.00
72905;DHT22;61048;52.162;4.516;2023-04-24T08:54:34;17.40;53.90
72905;DHT22;61048;52.162;4.516;2023-04-24T08:57:02;17.40;53.90
72905;DHT22;61048;52.162;4.516;2023-04-24T08:59:30;17.40;53.90
72905;DHT22;61048;52.162;4.516;2023-04-24T09:01:58;17.40;53.90
72905;DHT22;61048;52.162;4.516;2023-04-24T09:04:25;17.40;53.90
72905;DHT22;61048;52.162;4.516;2023-04-24T09:06:57;17.40;53.90
72905;DHT22;61048;52.162;4.516;2023-04-24T09:09:24;17.40;53.80
72905;DHT22;61048;52.162;4.516;2023-04-24T09:11:52;17.40;53.90
72905;DHT22;61048;52.162;4.516;2023-04-24T09:14:21;17.40;53.80
72905;DHT22;61048;52.162;4.516;2023-04-24T09:16:49;17.40;53.80
72905;DHT22;61048;52.162;4.516;2023-04-24T09:19:16;17.40;53.70
72905;DHT22;61048;52.162;4.516;2023-04-24T09:21:46;17.40;53.80
72905;DHT22;61048;52.162;4.516;2023-04-24T09:24:18;17.40;53.80
72905;DHT22;61048;52.162;4.516;2023-04-24T09:26:48;17.40;53.70
72905;DHT22;61048;52.162;4.516;2023-04-24T09:29:16;17.40;53.00
72905;DHT22;61048;52.162;4.516;2023-04-24T09:31:43;17.40;52.80
72905;DHT22;61048;52.162;4.516;2023-04-24T09:34:11;17.40;52.70
72905;DHT22;61048;52.162;4.516;2023-04-24T09:36:39;17.40;53.20
72905;DHT22;61048;52.162;4.516;2023-04-24T09:39:07;17.50;53.70
72905;DHT22;61048;52.162;4.516;2023-04-24T09:41:43;17.50;53.70
72905;DHT22;61048;52.162;4.516;2023-04-24T09:44:12;17.50;53.90
72905;DHT22;61048;52.162;4.516;2023-04-24T09:46:39;17.50;53.90
72905;DHT22;61048;52.162;4.516;2023-04-24T09:49:10;17.50;54.00
72905;DHT22;61048;52.162;4.516;2023-04-24T09:51:38;17.50;53.90
72905;DHT22;61048;52.162;4.516;2023-04-24T09:54:13;17.50;54.00
72905;DHT22;61048;52.162;4.516;2023-04-24T09:56:44;17.50;54.00
72905;DHT22;61048;52.162;4.516;2023-04-24T09:59:12;17.50;54.00
72905;DHT22;61048;52.162;4.516;2023-04-24T10:01:39;17.50;53.90
72905;DHT22;61048;52.162;4.516;2023-04-24T10:04:15;17.60;53.90
72905;DHT22;61048;52.162;4.516;2023-04-24T10:06:43;17.60;53.90
72905;DHT22;61048;52.162;4.516;2023-04-24T10:09:10;17.60;53.80
72905;DHT22;61048;52.162;4.516;2023-04-24T10:11:43;17.70;53.70
72905;DHT22;61048;52.162;4.516;2023-04-24T10:14:12;17.70;53.80
72905;DHT22;61048;52.162;4.516;2023-04-24T10:16:39;17.70;53.70
72905;DHT22;61048;52.162;4.516;2023-04-24T10:19:07;17.70;53.70
72905;DHT22;61048;52.162;4.516;2023-04-24T10:21:34;17.70;53.60
72905;DHT22;61048;52.162;4.516;2023-04-24T10:24:03;17.80;53.50
72905;DHT22;61048;52.162;4.516;2023-04-24T10:26:33;17.80;53.50
72905;DHT22;61048;52.162;4.516;2023-04-24T10:29:02;17.80;53.40
72905;DHT22;61048;52.162;4.516;2023-04-24T10:31:31;17.80;53.40
72905;DHT22;61048;52.162;4.516;2023-04-24T10:34:00;17.80;53.30
72905;DHT22;61048;52.162;4.516;2023-04-24T10:36:29;17.80;53.30
72905;DHT22;61048;52.162;4.516;2023-04-24T10:39:00;17.90;53.10
72905;DHT22;61048;52.162;4.516;2023-04-24T10:41:27;17.90;53.10
72905;DHT22;61048;52.162;4.516;2023-04-24T10:44:08;17.90;53.10
72905;DHT22;61048;52.162;4.516;2023-04-24T10:46:37;17.90;53.10
72905;DHT22;61048;52.162;4.516;2023-04-24T10:49:05;17.80;53.00
72905;DHT22;61048;52.162;4.516;2023-04-24T10:51:45;17.80;52.90
72905;DHT22;61048;52.162;4.516;2023-04-24T10:54:22;17.80;53.00
72905;DHT22;61048;52.162;4.516;2023-04-24T10:56:51;17.90;53.00
72905;DHT22;61048;52.162;4.516;2023-04-24T10:59:27;17.80;52.90
72905;DHT22;61048;52.162;4.516;2023-04-24T11:02:02;17.80;52.80
72905;DHT22;61048;52.162;4.516;2023-04-24T11:04:30;17.80;52.90
72905;DHT22;61048;52.162;4.516;2023-04-24T11:06:58;17.80;52.80
72905;DHT22;61048;52.162;4.516;2023-04-24T11:09:26;17.80;52.80
72905;DHT22;61048;52.162;4.516;2023-04-24T11:12:03;17.90;52.90
72905;DHT22;61048;52.162;4.516;2023-04-24T11:15:00;17.90;52.80
72905;DHT22;61048;52.162;4.516;2023-04-24T11:17:29;17.90;52.80
72905;DHT22;61048;52.162;4.516;2023-04-24T11:20:01;17.90;52.80
72905;DHT22;61048;52.162;4.516;2023-04-24T11:22:29;17.90;52.80
72905;DHT22;61048;52.162;4.516;2023-04-24T11:25:00;17.90;52.70
72905;DHT22;61048;52.162;4.516;2023-04-24T11:27:30;18.00;52.70
72905;DHT22;61048;52.162;4.516;2023-04-24T11:30:03;17.90;52.70
72905;DHT22;61048;52.162;4.516;2023-04-24T11:32:34;17.90;52.60
72905;DHT22;61048;52.162;4.516;2023-04-24T11:35:03;18.00;52.70
72905;DHT22;61048;52.162;4.516;2023-04-24T11:37:35;18.00;52.70
72905;DHT22;61048;52.162;4.516;2023-04-24T11:40:02;18.00;52.60
72905;DHT22;61048;52.162;4.516;2023-04-24T11:42:34;18.00;52.50
72905;DHT22;61048;52.162;4.516;2023-04-24T11:45:07;18.00;52.50
72905;DHT22;61048;52.162;4.516;2023-04-24T11:47:34;18.00;52.40
72905;DHT22;61048;52.162;4.516;2023-04-24T11:50:03;18.00;52.40
72905;DHT22;61048;52.162;4.516;2023-04-24T11:52:30;18.00;52.40
72905;DHT22;61048;52.162;4.516;2023-04-24T11:54:58;18.00;52.30
72905;DHT22;61048;52.162;4.516;2023-04-24T11:57:25;18.00;52.20
72905;DHT22;61048;52.162;4.516;2023-04-24T11:59:54;18.00;52.20
72905;DHT22;61048;52.162;4.516;2023-04-24T12:02:23;18.00;52.20
72905;DHT22;61048;52.162;4.516;2023-04-24T12:04:51;18.00;52.30
72905;DHT22;61048;52.162;4.516;2023-04-24T12:07:18;18.00;52.10
72905;DHT22;61048;52.162;4.516;2023-04-24T12:09:46;18.00;52.20
72905;DHT22;61048;52.162;4.516;2023-04-24T12:12:14;18.00;52.10
72905;DHT22;61048;52.162;4.516;2023-04-24T12:14:45;18.00;52.10
72905;DHT22;61048;52.162;4.516;2023-04-24T12:17:11;18.00;52.10
72905;DHT22;61048;52.162;4.516;2023-04-24T12:19:45;18.00;52.10
72905;DHT22;61048;52.162;4.516;2023-04-24T12:22:12;18.00;52.10
72905;DHT22;61048;52.162;4.516;2023-04-24T12:24:58;18.10;52.00
72905;DHT22;61048;52.162;4.516;2023-04-24T12:27:26;18.10;52.10
72905;DHT22;61048;52.162;4.516;2023-04-24T12:29:53;18.20;52.00
72905;DHT22;61048;52.162;4.516;2023-04-24T12:32:22;18.20;51.90
72905;DHT22;61048;52.162;4.516;2023-04-24T12:34:51;18.20;51.80
72905;DHT22;61048;52.162;4.516;2023-04-24T12:37:18;18.30;51.80
72905;DHT22;61048;52.162;4.516;2023-04-24T12:40:02;18.30;51.60
72905;DHT22;61048;52.162;4.516;2023-04-24T12:42:31;18.30;51.60
72905;DHT22;61048;52.162;4.516;2023-04-24T12:44:59;18.30;51.60
72905;DHT22;61048;52.162;4.516;2023-04-24T12:47:26;18.30;51.70
72905;DHT22;61048;52.162;4.516;2023-04-24T12:49:54;18.30;51.50
72905;DHT22;61048;52.162;4.516;2023-04-24T12:52:22;18.40;51.50
72905;DHT22;61048;52.162;4.516;2023-04-24T12:54:49;18.40;51.50
72905;DHT22;61048;52.162;4.516;2023-04-24T12:57:18;18.40;51.50
72905;DHT22;61048;52.162;4.516;2023-04-24T12:59:45;18.50;51.50
72905;DHT22;61048;52.162;4.516;2023-04-24T13:02:12;18.50;51.20
72905;DHT22;61048;52.162;4.516;2023-04-24T13:04:39;18.50;51.20
72905;DHT22;61048;52.162;4.516;2023-04-24T13:07:08;18.50;51.30
72905;DHT22;61048;52.162;4.516;2023-04-24T13:09:34;18.60;51.30
72905;DHT22;61048;52.162;4.516;2023-04-24T13:12:02;18.60;51.20
72905;DHT22;61048;52.162;4.516;2023-04-24T13:14:30;18.60;51.20
72905;DHT22;61048;52.162;4.516;2023-04-24T13:16:57;18.60;51.00
72905;DHT22;61048;52.162;4.516;2023-04-24T13:19:24;18.60;51.00
72905;DHT22;61048;52.162;4.516;2023-04-24T13:21:52;18.60;50.70
72905;DHT22;61048;52.162;4.516;2023-04-24T13:24:20;18.60;50.80
72905;DHT22;61048;52.162;4.516;2023-04-24T13:26:50;18.60;50.50
72905;DHT22;61048;52.162;4.516;2023-04-24T13:29:17;18.60;50.10
72905;DHT22;61048;52.162;4.516;2023-04-24T13:31:44;18.60;50.50
72905;DHT22;61048;52.162;4.516;2023-04-24T13:34:10;18.70;50.50
72905;DHT22;61048;52.162;4.516;2023-04-24T13:36:37;18.70;50.40
72905;DHT22;61048;52.162;4.516;2023-04-24T13:39:05;18.70;50.10
72905;DHT22;61048;52.162;4.516;2023-04-24T13:41:33;18.80;50.60
72905;DHT22;61048;52.162;4.516;2023-04-24T13:44:01;18.80;50.50
72905;DHT22;61048;52.162;4.516;2023-04-24T13:46:28;18.80;50.50
72905;DHT22;61048;52.162;4.516;2023-04-24T13:48:56;18.80;50.70
72905;DHT22;61048;52.162;4.516;2023-04-24T13:51:23;18.80;50.60
72905;DHT22;61048;52.162;4.516;2023-04-24T13:53:52;18.80;50.80
72905;DHT22;61048;52.162;4.516;2023-04-24T13:56:19;18.80;50.40
72905;DHT22;61048;52.162;4.516;2023-04-24T13:58:48;18.80;50.60
72905;DHT22;61048;52.162;4.516;2023-04-24T14:01:15;18.80;50.60
72905;DHT22;61048;52.162;4.516;2023-04-24T14:03:42;18.80;50.50
72905;DHT22;61048;52.162;4.516;2023-04-24T14:06:09;18.90;50.40
72905;DHT22;61048;52.162;4.516;2023-04-24T14:08:36;18.90;50.50
72905;DHT22;61048;52.162;4.516;2023-04-24T14:11:04;19.00;50.20
72905;DHT22;61048;52.162;4.516;2023-04-24T14:13:31;19.00;49.70
72905;DHT22;61048;52.162;4.516;2023-04-24T14:15:59;19.00;50.00
72905;DHT22;61048;52.162;4.516;2023-04-24T14:18:26;19.00;50.10
72905;DHT22;61048;52.162;4.516;2023-04-24T14:20:53;19.00;50.10
72905;DHT22;61048;52.162;4.516;2023-04-24T14:23:20;19.10;50.00
72905;DHT22;61048;52.162;4.516;2023-04-24T14:25:47;19.20;50.00
72905;DHT22;61048;52.162;4.516;2023-04-24T14:28:17;19.10;50.10
72905;DHT22;61048;52.162;4.516;2023-04-24T14:30:44;19.10;50.00
72905;DHT22;61048;52.162;4.516;2023-04-24T14:33:12;19.00;50.10
72905;DHT22;61048;52.162;4.516;2023-04-24T14:35:40;19.00;49.70
72905;DHT22;61048;52.162;4.516;2023-04-24T14:38:08;19.00;49.50
72905;DHT22;61048;52.162;4.516;2023-04-24T14:40:35;19.00;49.80
72905;DHT22;61048;52.162;4.516;2023-04-24T14:43:02;18.90;49.50
72905;DHT22;61048;52.162;4.516;2023-04-24T14:45:29;19.00;50.00
72905;DHT22;61048;52.162;4.516;2023-04-24T14:47:57;19.10;49.90
72905;DHT22;61048;52.162;4.516;2023-04-24T14:50:25;19.10;50.00
72905;DHT22;61048;52.162;4.516;2023-04-24T14:52:53;19.10;50.00
72905;DHT22;61048;52.162;4.516;2023-04-24T14:55:20;19.10;49.90
72905;DHT22;61048;52.162;4.516;2023-04-24T14:57:47;19.10;49.40
72905;DHT22;61048;52.162;4.516;2023-04-24T15:00:15;19.10;49.80
72905;DHT22;61048;52.162;4.516;2023-04-24T15:02:42;19.10;49.40
72905;DHT22;61048;52.162;4.516;2023-04-24T15:05:10;19.10;49.40
72905;DHT22;61048;52.162;4.516;2023-04-24T15:07:38;19.00;49.40
72905;DHT22;61048;52.162;4.516;2023-04-24T15:10:07;19.00;49.30
72905;DHT22;61048;52.162;4.516;2023-04-24T15:12:34;19.00;49.60
72905;DHT22;61048;52.162;4.516;2023-04-24T15:15:02;19.00;49.20
72905;DHT22;61048;52.162;4.516;2023-04-24T15:17:29;19.00;49.20
72905;DHT22;61048;52.162;4.516;2023-04-24T15:19:56;19.00;49.40
72905;DHT22;61048;52.162;4.516;2023-04-24T15:22:22;18.90;49.40
72905;DHT22;61048;52.162;4.516;2023-04-24T15:24:51;19.00;49.10
72905;DHT22;61048;52.162;4.516;2023-04-24T15:27:17;19.00;49.10
72905;DHT22;61048;52.162;4.516;2023-04-24T15:29:44;19.00;49.20
72905;DHT22;61048;52.162;4.516;2023-04-24T15:32:11;19.00;49.30
72905;DHT22;61048;52.162;4.516;2023-04-24T15:34:38;19.00;49.20